createdAt,value
2022-10-14T00:01:09.283Z,99.03
2022-10-14T00:03:37.113Z,97.94
2022-10-14T00:06:06.400Z,98.36
2022-10-14T00:08:33.085Z,97.55
2022-10-14T00:11:12.532Z,97.70
2022-10-14T00:13:39.803Z,98.02
2022-10-14T00:16:23.132Z,98.03
2022-10-14T00:18:49.719Z,99.85
2022-10-14T00:21:16.597Z,100.00
2022-10-14T00:23:43.944Z,99.99
2022-10-14T00:26:25.912Z,99.77
2022-10-14T00:28:53.331Z,99.39
2022-10-14T00:31:21.544Z,99.07
2022-10-14T00:33:50.907Z,99.54
2022-10-14T00:36:22.891Z,98.54
2022-10-14T00:38:50.794Z,98.94
2022-10-14T00:41:26.307Z,100.00
2022-10-14T00:44:04.021Z,100.00
2022-10-14T00:46:59.184Z,100.00
2022-10-14T00:49:33.683Z,100.00
2022-10-14T00:52:06.663Z,100.00
2022-10-14T00:54:36.786Z,100.00
2022-10-14T00:57:08.915Z,100.00
2022-10-14T00:59:35.634Z,100.00
2022-10-14T01:02:04.087Z,100.00
2022-10-14T01:04:30.860Z,100.00
2022-10-14T01:07:17.621Z,100.00
2022-10-14T01:09:55.194Z,100.00
2022-10-14T01:12:45.365Z,100.00
2022-10-14T01:15:29.359Z,100.00
2022-10-14T01:18:11.488Z,100.00
2022-10-14T01:20:49.158Z,100.00
2022-10-14T01:23:41.645Z,100.00
2022-10-14T01:26:29.375Z,100.00
2022-10-14T01:29:18.244Z,100.00
2022-10-14T01:31:52.373Z,100.00
2022-10-14T01:34:25.855Z,100.00
2022-10-14T01:37:00.271Z,100.00
2022-10-14T01:39:31.623Z,100.00
2022-10-14T01:42:20.367Z,100.00
2022-10-14T01:44:51.167Z,100.00
2022-10-14T01:47:20.689Z,100.00
2022-10-14T01:49:57.983Z,100.00
2022-10-14T01:52:33.276Z,100.00
2022-10-14T01:55:04.219Z,100.00
2022-10-14T01:57:33.427Z,100.00
2022-10-14T02:00:01.114Z,100.00
2022-10-14T02:02:27.710Z,100.00
2022-10-14T02:04:54.334Z,100.00
2022-10-14T02:07:30.611Z,100.00
2022-10-14T02:10:05.854Z,100.00
2022-10-14T02:12:47.659Z,100.00
2022-10-14T02:15:32.583Z,100.00
2022-10-14T02:18:08.812Z,100.00
2022-10-14T02:20:42.440Z,100.00
2022-10-14T02:23:15.586Z,100.00
2022-10-14T02:25:45.088Z,100.00
2022-10-14T02:28:16.234Z,100.00
2022-10-14T02:30:47.467Z,100.00
2022-10-14T02:33:21.170Z,100.00
2022-10-14T02:35:49.126Z,100.00
2022-10-14T02:38:16.204Z,100.00
2022-10-14T02:40:46.125Z,100.00
2022-10-14T02:43:12.962Z,100.00
2022-10-14T02:45:51.433Z,100.00
2022-10-14T02:48:19.575Z,100.00
2022-10-14T02:50:54.267Z,100.00
2022-10-14T02:53:23.711Z,100.00
2022-10-14T02:55:50.582Z,100.00
2022-10-14T02:58:19.134Z,100.00
2022-10-14T03:00:45.762Z,100.00
2022-10-14T03:03:13.398Z,100.00
2022-10-14T03:05:43.086Z,100.00
2022-10-14T03:08:31.775Z,100.00
2022-10-14T03:10:59.717Z,100.00
2022-10-14T03:13:27.773Z,100.00
2022-10-14T03:15:54.971Z,100.00
2022-10-14T03:18:21.900Z,100.00
2022-10-14T03:20:52.588Z,100.00
2022-10-14T03:23:24.248Z,100.00
2022-10-14T03:25:53.539Z,100.00
2022-10-14T03:28:28.202Z,100.00
2022-10-14T03:31:02.713Z,100.00
2022-10-14T03:33:50.612Z,100.00
2022-10-14T03:36:18.418Z,100.00
2022-10-14T03:38:49.669Z,100.00
2022-10-14T03:41:30.025Z,100.00
2022-10-14T03:43:56.911Z,100.00
2022-10-14T03:46:23.735Z,100.00
2022-10-14T03:48:51.452Z,100.00
2022-10-14T03:51:18.493Z,100.00
2022-10-14T03:53:46.735Z,100.00
2022-10-14T03:56:17.485Z,100.00
2022-10-14T03:58:44.890Z,100.00
2022-10-14T04:01:16.396Z,100.00
2022-10-14T04:04:16.852Z,100.00
2022-10-14T04:06:45.971Z,100.00
2022-10-14T04:09:16.126Z,100.00
2022-10-14T04:11:43.310Z,100.00
2022-10-14T04:14:30.869Z,100.00
2022-10-14T04:16:58.342Z,100.00
2022-10-14T04:19:24.945Z,100.00
2022-10-14T04:21:56.828Z,100.00
2022-10-14T04:24:26.406Z,100.00
2022-10-14T04:27:02.901Z,100.00
2022-10-14T04:29:42.964Z,100.00
2022-10-14T04:32:21.874Z,100.00
2022-10-14T04:34:48.855Z,100.00
2022-10-14T04:37:18.741Z,100.00
2022-10-14T04:40:01.112Z,100.00
2022-10-14T04:42:30.142Z,100.00
2022-10-14T04:45:02.009Z,100.00
2022-10-14T04:47:48.634Z,100.00
2022-10-14T04:50:19.889Z,100.00
2022-10-14T04:53:04.979Z,100.00
2022-10-14T04:55:32.313Z,100.00
2022-10-14T04:57:59.329Z,100.00
2022-10-14T05:00:31.135Z,100.00
2022-10-14T05:03:03.540Z,100.00
2022-10-14T05:05:34.841Z,100.00
2022-10-14T05:08:04.367Z,100.00
2022-10-14T05:10:37.978Z,100.00
2022-10-14T05:13:09.871Z,100.00
2022-10-14T05:15:47.720Z,100.00
2022-10-14T05:18:15.317Z,100.00
2022-10-14T05:21:02.257Z,100.00
2022-10-14T05:23:49.139Z,100.00
2022-10-14T05:26:16.155Z,100.00
2022-10-14T05:28:42.805Z,100.00
2022-10-14T05:31:09.562Z,100.00
2022-10-14T05:33:45.451Z,100.00
2022-10-14T05:36:12.419Z,100.00
2022-10-14T05:38:39.317Z,100.00
2022-10-14T05:41:05.996Z,100.00
2022-10-14T05:43:33.524Z,100.00
2022-10-14T05:46:03.442Z,100.00
2022-10-14T05:48:35.492Z,100.00
2022-10-14T05:51:03.709Z,100.00
2022-10-14T05:53:34.205Z,100.00
2022-10-14T05:56:08.361Z,100.00
2022-10-14T05:58:37.470Z,100.00
2022-10-14T06:01:07.188Z,100.00
2022-10-14T06:03:34.223Z,100.00
2022-10-14T06:06:01.328Z,100.00
2022-10-14T06:08:29.910Z,100.00
2022-10-14T06:10:56.691Z,100.00
2022-10-14T06:13:23.815Z,100.00
2022-10-14T06:15:52.421Z,100.00
2022-10-14T06:18:19.053Z,100.00
2022-10-14T06:20:52.161Z,100.00
2022-10-14T06:23:18.830Z,100.00
2022-10-14T06:25:45.471Z,100.00
2022-10-14T06:28:12.070Z,100.00
2022-10-14T06:30:38.662Z,100.00
2022-10-14T06:33:05.358Z,100.00
2022-10-14T06:35:31.968Z,100.00
2022-10-14T06:37:58.679Z,100.00
2022-10-14T06:40:25.349Z,100.00
2022-10-14T06:42:53.568Z,100.00
2022-10-14T06:45:20.158Z,100.00
2022-10-14T06:47:46.934Z,100.00
2022-10-14T06:50:13.529Z,100.00
2022-10-14T06:52:40.179Z,100.00
2022-10-14T06:55:07.277Z,100.00
2022-10-14T06:57:33.847Z,100.00
2022-10-14T07:00:00.494Z,100.00
2022-10-14T07:02:27.137Z,100.00
2022-10-14T07:04:53.722Z,100.00
2022-10-14T07:07:20.724Z,100.00
2022-10-14T07:09:47.383Z,100.00
2022-10-14T07:12:14.239Z,100.00
2022-10-14T07:14:40.961Z,100.00
2022-10-14T07:17:08.662Z,100.00
2022-10-14T07:19:35.509Z,100.00
2022-10-14T07:22:02.100Z,100.00
2022-10-14T07:24:28.687Z,100.00
2022-10-14T07:26:55.343Z,100.00
2022-10-14T07:29:22.049Z,100.00
2022-10-14T07:31:48.624Z,100.00
2022-10-14T07:34:15.261Z,100.00
2022-10-14T07:36:42.153Z,100.00
2022-10-14T07:39:09.481Z,100.00
2022-10-14T07:41:36.117Z,100.00
2022-10-14T07:44:09.390Z,100.00
2022-10-14T07:46:38.842Z,99.62
2022-10-14T07:49:08.084Z,100.00
2022-10-14T07:51:35.089Z,100.00
2022-10-14T07:54:03.678Z,100.00
2022-10-14T07:56:30.280Z,100.00
2022-10-14T07:58:58.339Z,99.98
2022-10-14T08:01:25.084Z,100.00
2022-10-14T08:03:52.278Z,99.45
2022-10-14T08:06:18.982Z,100.00
2022-10-14T08:08:45.648Z,100.00
2022-10-14T08:11:19.543Z,100.00
2022-10-14T08:13:46.958Z,100.00
2022-10-14T08:16:14.551Z,100.00
2022-10-14T08:18:41.211Z,99.97
2022-10-14T08:21:08.112Z,100.00
2022-10-14T08:23:34.776Z,100.00
2022-10-14T08:26:01.438Z,100.00
2022-10-14T08:28:28.113Z,100.00
2022-10-14T08:30:54.718Z,100.00
2022-10-14T08:33:21.513Z,99.67
2022-10-14T08:35:53.002Z,99.57
2022-10-14T08:38:25.106Z,98.52
2022-10-14T08:41:01.094Z,99.19
2022-10-14T08:43:33.872Z,98.40
2022-10-14T08:46:07.784Z,98.75
2022-10-14T08:48:35.309Z,98.03
2022-10-14T08:51:07.321Z,98.55
2022-10-14T08:53:56.705Z,97.26
2022-10-14T08:56:24.518Z,96.18
2022-10-14T08:58:52.329Z,96.18
2022-10-14T09:01:29.013Z,94.63
2022-10-14T09:04:03.888Z,94.43
2022-10-14T09:06:33.673Z,94.63
2022-10-14T09:09:09.437Z,94.17
2022-10-14T09:11:43.192Z,93.37
2022-10-14T09:14:15.549Z,94.86
2022-10-14T09:16:42.475Z,94.36
2022-10-14T09:19:14.431Z,93.58
2022-10-14T09:21:53.616Z,94.15
2022-10-14T09:24:27.458Z,94.31
2022-10-14T09:29:42.952Z,94.13
2022-10-14T09:32:13.430Z,94.36
2022-10-14T09:34:45.205Z,93.54
2022-10-14T09:37:36.425Z,93.62
2022-10-14T09:40:11.367Z,93.82
2022-10-14T09:43:02.035Z,92.63
2022-10-14T09:45:38.867Z,91.33
2022-10-14T09:48:08.722Z,92.55
2022-10-14T09:50:40.621Z,91.29
2022-10-14T09:53:34.717Z,92.49
2022-10-14T09:56:04.272Z,93.71
2022-10-14T09:58:55.260Z,92.51
2022-10-14T10:01:24.605Z,91.70
2022-10-14T10:03:52.504Z,92.43
2022-10-14T10:06:22.759Z,91.01
2022-10-14T10:08:55.716Z,92.19
2022-10-14T10:11:39.093Z,92.76
2022-10-14T10:14:24.501Z,93.49
2022-10-14T10:17:11.184Z,92.83
2022-10-14T10:19:43.280Z,92.03
2022-10-14T10:22:26.998Z,94.02
2022-10-14T10:25:06.142Z,94.01
2022-10-14T10:27:35.639Z,93.81
2022-10-14T10:30:30.195Z,93.65
2022-10-14T10:33:20.320Z,93.32
2022-10-14T10:39:17.572Z,92.93
2022-10-14T10:42:09.352Z,92.41
2022-10-14T10:44:59.748Z,91.53
2022-10-14T10:47:53.372Z,91.86
2022-10-14T10:50:31.969Z,92.08
2022-10-14T10:53:19.917Z,92.51
2022-10-14T10:56:11.376Z,92.39
2022-10-14T10:59:08.943Z,91.75
2022-10-14T11:01:41.984Z,92.12
2022-10-14T11:04:25.871Z,91.62
2022-10-14T11:07:29.606Z,92.03
2022-10-14T11:10:35.393Z,91.44
2022-10-14T11:13:29.317Z,92.02
2022-10-14T11:16:06.752Z,93.46
2022-10-14T11:19:01.240Z,94.38
2022-10-14T11:21:34.859Z,94.55
2022-10-14T11:24:26.848Z,94.55
2022-10-14T11:27:05.947Z,94.56
2022-10-14T11:30:03.296Z,97.95
2022-10-14T11:32:59.130Z,98.83
2022-10-14T11:35:50.799Z,99.85
2022-10-14T11:38:54.643Z,100.00
2022-10-14T11:41:32.366Z,99.98
2022-10-14T11:44:05.687Z,99.02
2022-10-14T11:46:38.209Z,99.54
2022-10-14T11:49:28.179Z,98.74
2022-10-14T11:52:03.084Z,98.11
2022-10-14T11:54:51.200Z,98.74
2022-10-14T11:57:37.092Z,97.90
2022-10-14T12:00:22.745Z,98.73
2022-10-14T12:03:12.150Z,98.14
2022-10-14T12:05:59.383Z,96.71
2022-10-14T12:08:33.245Z,96.67
2022-10-14T12:11:20.342Z,97.06
2022-10-14T12:13:54.732Z,96.62
2022-10-14T12:16:26.034Z,96.67
2022-10-14T12:18:56.334Z,97.25
2022-10-14T12:21:33.537Z,97.13
2022-10-14T12:24:07.993Z,97.46
2022-10-14T12:26:52.817Z,97.96
2022-10-14T12:29:24.915Z,96.68
2022-10-14T12:32:23.765Z,97.06
2022-10-14T12:34:57.325Z,98.60
2022-10-14T12:37:27.276Z,97.72
2022-10-14T12:40:06.880Z,98.80
2022-10-14T12:42:57.803Z,98.27
2022-10-14T12:45:29.526Z,98.76
2022-10-14T12:48:19.281Z,99.77
2022-10-14T12:50:50.383Z,100.00
2022-10-14T12:53:24.640Z,100.00
2022-10-14T12:55:54.428Z,100.00
2022-10-14T12:58:27.667Z,100.00
2022-10-14T13:00:57.043Z,99.67
2022-10-14T13:03:27.393Z,99.89
2022-10-14T13:06:25.747Z,100.00
2022-10-14T13:09:10.870Z,100.00
2022-10-14T13:11:45.062Z,100.00
2022-10-14T13:14:27.138Z,100.00
2022-10-14T13:16:53.672Z,100.00
2022-10-14T13:19:32.600Z,100.00
2022-10-14T13:22:31.485Z,100.00
2022-10-14T13:25:27.355Z,100.00
2022-10-14T13:28:21.421Z,100.00
2022-10-14T13:31:16.063Z,100.00
2022-10-14T13:33:49.946Z,100.00
2022-10-14T13:36:21.273Z,100.00
2022-10-14T13:38:54.320Z,100.00
2022-10-14T13:41:30.744Z,100.00
2022-10-14T13:43:59.270Z,100.00
2022-10-14T13:46:41.761Z,100.00
2022-10-14T13:49:13.671Z,100.00
2022-10-14T13:51:56.591Z,100.00
2022-10-14T13:54:25.451Z,100.00
2022-10-14T14:02:48.094Z,100.00
2022-10-14T14:05:25.310Z,100.00
2022-10-14T14:10:51.583Z,100.00
2022-10-14T14:13:25.177Z,100.00
2022-10-14T14:15:53.670Z,100.00
2022-10-14T14:19:03.961Z,100.00
2022-10-14T14:21:34.197Z,100.00
2022-10-14T14:24:01.704Z,100.00
2022-10-14T14:26:35.847Z,100.00
2022-10-14T14:29:06.347Z,100.00
2022-10-14T14:32:01.501Z,100.00
2022-10-14T14:34:21.776Z,100.00
2022-10-14T14:36:57.949Z,100.00
2022-10-14T14:39:33.574Z,100.00
2022-10-14T14:42:00.855Z,100.00
2022-10-14T14:44:29.742Z,100.00
2022-10-14T14:47:01.649Z,100.00
2022-10-14T14:49:30.818Z,100.00
2022-10-14T14:51:59.562Z,100.00
2022-10-14T14:54:27.289Z,100.00
2022-10-14T14:56:59.824Z,100.00
2022-10-14T14:59:30.438Z,100.00
2022-10-14T15:04:32.688Z,100.00
2022-10-14T15:07:06.144Z,100.00
2022-10-14T15:09:44.100Z,100.00
2022-10-14T15:12:17.718Z,100.00
2022-10-14T15:14:54.342Z,100.00
2022-10-14T15:17:45.997Z,100.00
2022-10-14T15:20:33.998Z,100.00
2022-10-14T15:23:00.939Z,100.00
2022-10-14T15:25:30.790Z,100.00
2022-10-14T15:28:01.872Z,100.00
2022-10-14T15:30:40.690Z,100.00
2022-10-14T15:33:21.752Z,100.00
2022-10-14T15:35:59.315Z,100.00
2022-10-14T15:38:26.764Z,100.00
2022-10-14T15:40:53.635Z,100.00
2022-10-14T15:43:26.681Z,100.00
2022-10-14T15:46:16.373Z,100.00
2022-10-14T15:48:47.627Z,100.00
2022-10-14T15:51:17.246Z,100.00
2022-10-14T15:53:43.818Z,100.00
2022-10-14T15:56:10.463Z,100.00
2022-10-14T15:58:37.351Z,100.00
2022-10-14T16:01:04.744Z,100.00
2022-10-14T16:03:35.851Z,100.00
2022-10-14T16:06:09.993Z,100.00
2022-10-14T16:08:38.931Z,100.00
2022-10-14T16:11:22.072Z,100.00
2022-10-14T16:13:48.698Z,100.00
2022-10-14T16:16:19.343Z,100.00
2022-10-14T16:18:46.811Z,100.00
2022-10-14T16:21:16.321Z,100.00
2022-10-14T16:23:46.230Z,100.00
2022-10-14T16:26:14.076Z,100.00
2022-10-14T16:28:40.740Z,100.00
2022-10-14T16:31:11.693Z,100.00
2022-10-14T16:33:40.465Z,100.00
2022-10-14T16:36:14.223Z,100.00
2022-10-14T16:38:40.882Z,100.00
2022-10-14T16:41:13.039Z,100.00
2022-10-14T16:43:39.803Z,100.00
2022-10-14T16:46:13.158Z,100.00
2022-10-14T16:49:00.152Z,100.00
2022-10-14T16:51:26.869Z,100.00
2022-10-14T16:53:53.616Z,100.00
2022-10-14T16:56:58.496Z,100.00
2022-10-14T16:59:25.873Z,100.00
2022-10-14T17:01:53.426Z,100.00
2022-10-14T17:04:20.660Z,100.00
2022-10-14T17:06:52.183Z,100.00
2022-10-14T17:09:19.265Z,100.00
2022-10-14T17:11:47.423Z,100.00
2022-10-14T17:14:16.719Z,100.00
2022-10-14T17:16:43.479Z,100.00
2022-10-14T17:19:11.334Z,100.00
2022-10-14T17:21:39.212Z,100.00
2022-10-14T17:24:07.262Z,100.00
2022-10-14T17:26:46.295Z,100.00
2022-10-14T17:29:13.004Z,100.00
2022-10-14T17:31:39.721Z,100.00
2022-10-14T17:34:08.538Z,100.00
2022-10-14T17:36:35.190Z,100.00
2022-10-14T17:39:01.829Z,100.00
2022-10-14T17:41:29.632Z,100.00
2022-10-14T17:43:57.846Z,100.00
2022-10-14T17:46:26.160Z,100.00
2022-10-14T17:48:54.438Z,100.00
2022-10-14T17:51:45.110Z,100.00
2022-10-14T17:54:14.089Z,100.00
2022-10-14T17:56:41.096Z,100.00
2022-10-14T17:59:10.801Z,100.00
2022-10-14T18:02:00.881Z,100.00
2022-10-14T18:04:24.315Z,100.00
2022-10-14T18:06:51.142Z,100.00
2022-10-14T18:09:17.980Z,100.00
2022-10-14T18:14:34.047Z,100.00
2022-10-14T18:17:07.406Z,100.00
2022-10-14T18:19:51.212Z,100.00
2022-10-14T18:22:19.113Z,100.00
2022-10-14T18:24:46.489Z,100.00
2022-10-14T18:27:13.216Z,100.00
2022-10-14T18:29:40.170Z,100.00
2022-10-14T18:32:06.765Z,100.00
2022-10-14T18:34:33.687Z,100.00
2022-10-14T18:37:00.339Z,100.00
2022-10-14T18:39:29.823Z,100.00
2022-10-14T18:41:56.419Z,100.00
2022-10-14T18:44:23.011Z,100.00
2022-10-14T18:46:49.614Z,100.00
2022-10-14T18:49:16.276Z,100.00
2022-10-14T18:51:43.406Z,100.00
2022-10-14T18:54:18.586Z,100.00
2022-10-14T18:56:45.216Z,100.00
2022-10-14T18:59:18.139Z,100.00
2022-10-14T19:01:46.111Z,100.00
2022-10-14T19:04:14.907Z,100.00
2022-10-14T19:06:44.917Z,100.00
2022-10-14T19:09:12.716Z,100.00
2022-10-14T19:11:39.643Z,100.00
2022-10-14T19:14:06.329Z,100.00
2022-10-14T19:16:36.888Z,100.00
2022-10-14T19:19:11.261Z,100.00
2022-10-14T19:21:38.840Z,100.00
2022-10-14T19:24:06.963Z,100.00
2022-10-14T19:26:35.888Z,100.00
2022-10-14T19:29:06.505Z,100.00
2022-10-14T19:31:36.154Z,100.00
2022-10-14T19:34:05.341Z,100.00
2022-10-14T19:37:06.369Z,100.00
2022-10-14T19:39:35.813Z,100.00
2022-10-14T19:42:02.578Z,100.00
2022-10-14T19:47:03.783Z,100.00
2022-10-14T19:49:30.434Z,100.00
2022-10-14T19:51:57.007Z,100.00
2022-10-14T19:54:23.586Z,100.00
2022-10-14T19:56:53.306Z,100.00
2022-10-14T19:59:25.331Z,100.00
2022-10-14T20:01:52.007Z,100.00
2022-10-14T20:04:25.158Z,100.00
2022-10-14T20:06:54.148Z,100.00
2022-10-14T20:09:20.795Z,100.00
2022-10-14T20:11:47.394Z,100.00
2022-10-14T20:14:14.495Z,99.94
2022-10-14T20:16:41.205Z,100.00
2022-10-14T20:19:08.078Z,100.00
2022-10-14T20:21:34.729Z,100.00
2022-10-14T20:24:01.473Z,100.00
2022-10-14T20:26:28.309Z,100.00
2022-10-14T20:28:55.026Z,100.00
2022-10-14T20:31:24.015Z,100.00
2022-10-14T20:33:51.017Z,100.00
2022-10-14T20:36:19.839Z,100.00
2022-10-14T20:38:49.598Z,100.00
2022-10-14T20:41:24.882Z,100.00
2022-10-14T20:43:52.888Z,100.00
2022-10-14T20:46:21.937Z,100.00
2022-10-14T20:48:48.714Z,100.00
2022-10-14T20:51:18.035Z,100.00
2022-10-14T20:53:44.782Z,100.00
2022-10-14T20:56:13.050Z,100.00
2022-10-14T20:58:39.981Z,100.00
2022-10-14T21:01:16.452Z,100.00
2022-10-14T21:03:52.109Z,100.00
2022-10-14T21:06:22.337Z,100.00
2022-10-14T21:08:50.714Z,100.00
2022-10-14T21:11:20.250Z,100.00
2022-10-14T21:13:48.449Z,100.00
2022-10-14T21:16:21.539Z,100.00
2022-10-14T21:18:53.571Z,100.00
2022-10-14T21:21:23.984Z,100.00
2022-10-14T21:23:50.800Z,100.00
2022-10-14T21:26:17.476Z,100.00
2022-10-14T21:28:44.323Z,100.00
2022-10-14T21:31:21.345Z,100.00
2022-10-14T21:34:01.297Z,100.00
2022-10-14T21:36:31.990Z,100.00
2022-10-14T21:39:04.317Z,100.00
2022-10-14T21:41:31.276Z,100.00
2022-10-14T21:43:59.213Z,100.00
2022-10-14T21:46:26.424Z,100.00
2022-10-14T21:49:03.696Z,100.00
2022-10-14T21:51:33.171Z,100.00
2022-10-14T21:56:44.959Z,100.00
2022-10-14T21:59:12.399Z,100.00
2022-10-14T22:01:46.634Z,100.00
2022-10-14T22:04:13.412Z,100.00
2022-10-14T22:06:47.072Z,100.00
2022-10-14T22:09:13.663Z,100.00
2022-10-14T22:11:41.261Z,100.00
2022-10-14T22:14:14.023Z,100.00
2022-10-14T22:16:41.142Z,100.00
2022-10-14T22:19:09.790Z,100.00
2022-10-14T22:21:38.302Z,100.00
2022-10-14T22:24:13.021Z,100.00
2022-10-14T22:26:47.439Z,100.00
2022-10-14T22:29:15.338Z,100.00
2022-10-14T22:31:45.497Z,100.00
2022-10-14T22:34:16.693Z,100.00
2022-10-14T22:36:43.974Z,100.00
2022-10-14T22:39:13.517Z,100.00
2022-10-14T22:41:55.620Z,100.00
2022-10-14T22:44:25.339Z,100.00
2022-10-14T22:46:54.197Z,100.00
2022-10-14T22:49:20.920Z,100.00
2022-10-14T22:51:47.587Z,100.00
2022-10-14T22:54:16.909Z,100.00
2022-10-14T22:56:43.512Z,100.00
2022-10-14T22:59:11.475Z,100.00
2022-10-14T23:01:39.152Z,100.00
2022-10-14T23:04:08.431Z,100.00
2022-10-14T23:06:35.432Z,100.00
2022-10-14T23:09:02.325Z,99.59
2022-10-14T23:11:30.967Z,100.00
2022-10-14T23:13:59.197Z,100.00
2022-10-14T23:16:28.640Z,100.00
2022-10-14T23:18:55.339Z,100.00
2022-10-14T23:21:29.604Z,100.00
2022-10-14T23:23:58.281Z,100.00
2022-10-14T23:26:26.799Z,100.00
2022-10-14T23:28:57.970Z,100.00
2022-10-14T23:31:29.690Z,100.00
2022-10-14T23:34:01.796Z,100.00
2022-10-14T23:36:28.899Z,100.00
2022-10-14T23:38:55.706Z,100.00
2022-10-14T23:41:23.022Z,100.00
2022-10-14T23:43:54.009Z,100.00
2022-10-14T23:46:20.887Z,100.00
2022-10-14T23:49:01.185Z,100.00
2022-10-14T23:51:38.811Z,100.00
2022-10-14T23:54:05.712Z,100.00
2022-10-14T23:56:34.067Z,100.00
2022-10-14T23:59:00.642Z,100.00
